Time;durP1;ratioP1;P1;durP2;ratioP2;P2;SDS_P1;SDS_P2;PMS_P1;PMS_P2;Temp;Humidity;BMP_temperature;BMP_pressure;BME280_temperature;BME280_humidity;BME280_pressure;Samples;Min_cycle;Max_cycle;Signal;HPM_P1;HPM_P2
2021/09/18 00:00:33;;;;;;;10.45;5.35;;;;;;;;;;143722;624;46018;-88
2021/09/18 00:03:13;;;;;;;14.40;4.80;;;;;;;;;;143726;583;46021;-90
2021/09/18 00:05:48;;;;;;;13.10;4.20;;;;;;;;;;143722;587;46021;-89
2021/09/18 00:08:28;;;;;;;14.40;4.87;;;;;;;;;;143728;564;46012;-88
2021/09/18 00:11:02;;;;;;;17.52;4.78;;;;;;;;;;143723;575;46019;-88
2021/09/18 00:13:43;;;;;;;12.30;4.10;;;;;;;;;;143726;642;46020;-88
2021/09/18 00:16:25;;;;;;;;;;;;;;;;;;;;;
2021/09/18 00:19:00;;;;;;;10.63;5.10;;;;;;;;;;143729;619;46023;-87
2021/09/18 00:21:43;;;;;;;14.32;5.85;;;;;;;;;;143724;590;46027;-88
2021/09/18 00:24:21;;;;;;;10.20;4.87;;;;;;;;;;143730;572;46021;-88
2021/09/18 00:26:50;;;;;;;9.10;4.18;;;;;;;;;;143722;618;46021;-89
2021/09/18 00:29:19;;;;;;;10.20;5.00;;;;;;;;;;143730;666;46012;-88
2021/09/18 00:31:50;;;;;;;19.00;4.80;;;;;;;;;;143722;639;46018;-88
2021/09/18 00:34:34;;;;;;;;;;;;;;;;;;;;;
2021/09/18 00:37:13;;;;;;;13.75;4.68;;;;;;;;;;143725;585;46022;-89
2021/09/18 00:39:42;;;;;;;11.55;4.55;;;;;;;;;;143724;630;46023;-89
2021/09/18 00:42:15;;;;;;;12.82;5.00;;;;;;;;;;143723;631;46018;-87
2021/09/18 00:44:50;;;;;;;12.30;4.57;;;;;;;;;;143730;584;46012;-88
2021/09/18 00:47:17;;;;;;;11.32;5.53;;;;;;;;;;143726;652;46014;-89
2021/09/18 00:49:50;;;;;;;17.50;4.62;;;;;;;;;;143726;571;46012;-89
2021/09/18 00:52:23;;;;;;;14.25;5.72;;;;;;;;;;143725;617;46018;-85
2021/09/18 00:54:54;;;;;;;13.70;5.15;;;;;;;;;;143728;581;46013;-87
2021/09/18 00:57:27;;;;;;;10.40;5.65;;;;;;;;;;143725;576;46018;-88
2021/09/18 01:00:02;;;;;;;10.23;4.53;;;;;;;;;;143731;626;46012;-87
2021/09/18 01:02:35;;;;;;;9.00;4.00;;;;;;;;;;143722;633;46019;-88
2021/09/18 01:05:12;;;;;;;9.93;3.95;;;;;;;;;;143727;594;46020;-87
2021/09/18 01:07:52;;;;;;;18.77;4.97;;;;;;;;;;143724;578;46020;-89
2021/09/18 01:10:29;;;;;;;13.60;4.62;;;;;;;;;;143728;569;46921;-87
2021/09/18 01:13:20;;;;;;;13.93;5.15;;;;;;;;;;143723;608;47018;-86
2021/09/18 01:15:54;;;;;;;8.45;4.47;;;;;;;;;;143726;590;46021;-87
2021/09/18 01:18:27;;;;;;;12.02;5.30;;;;;;;;;;143722;581;46021;-88
2021/09/18 01:20:56;;;;;;;7.87;4.62;;;;;;;;;;143725;564;46022;-89
2021/09/18 01:23:31;;;;;;;12.18;4.50;;;;;;;;;;143724;573;47018;-89
2021/09/18 01:26:09;;;;;;;7.18;3.80;;;;;;;;;;143726;575;46012;-88
2021/09/18 01:28:42;;;;;;;11.20;4.97;;;;;;;;;;143724;646;46020;-87
2021/09/18 01:31:17;;;;;;;10.70;4.40;;;;;;;;;;143727;578;46012;-87
2021/09/18 01:33:52;;;;;;;18.90;4.97;;;;;;;;;;143725;650;46019;-86
2021/09/18 01:36:23;;;;;;;9.85;4.62;;;;;;;;;;143730;580;46012;-88
2021/09/18 01:39:13;;;;;;;9.68;4.40;;;;;;;;;;143726;564;46020;-88
2021/09/18 01:41:55;;;;;;;;;;;;;;;;;;;;;
2021/09/18 01:44:32;;;;;;;15.75;4.55;;;;;;;;;;143728;617;46014;-89
2021/09/18 01:47:12;;;;;;;10.93;4.43;;;;;;;;;;143727;662;46021;-88
2021/09/18 01:49:50;;;;;;;11.73;5.00;;;;;;;;;;143727;586;46021;-90
2021/09/18 01:52:36;;;;;;;13.52;5.72;;;;;;;;;;143728;585;46022;-88
2021/09/18 01:55:13;;;;;;;20.48;8.40;;;;;;;;;;143725;609;46019;-90
2021/09/18 01:57:48;;;;;;;9.48;5.60;;;;;;;;;;143726;636;46022;-89
2021/09/18 02:00:33;;;;;;;15.23;9.95;;;;;;;;;;143726;586;46020;-90
2021/09/18 02:03:10;;;;;;;14.07;5.32;;;;;;;;;;143731;571;46012;-89
2021/09/18 02:05:38;;;;;;;14.98;6.57;;;;;;;;;;143725;584;46018;-88
2021/09/18 02:08:10;;;;;;;11.12;6.37;;;;;;;;;;143728;629;46020;-87
2021/09/18 02:10:38;;;;;;;9.45;5.22;;;;;;;;;;143725;564;46020;-89
2021/09/18 02:13:18;;;;;;;10.10;5.05;;;;;;;;;;143728;577;46022;-87
2021/09/18 02:15:52;;;;;;;12.60;5.70;;;;;;;;;;143729;564;45032;-89
2021/09/18 02:18:26;;;;;;;14.73;5.43;;;;;;;;;;143729;673;47012;-87
2021/09/18 02:20:59;;;;;;;13.52;7.62;;;;;;;;;;143727;624;47020;-90
2021/09/18 02:23:31;;;;;;;11.07;6.53;;;;;;;;;;143729;601;46012;-88
2021/09/18 02:26:00;;;;;;;10.38;6.15;;;;;;;;;;143724;569;46019;-88
2021/09/18 02:28:33;;;;;;;18.30;4.90;;;;;;;;;;143733;585;47020;-87
2021/09/18 02:31:02;;;;;;;;;;;;;;;;;;143730;981;46020;-88
2021/09/18 02:33:34;;;;;;;12.65;4.55;;;;;;;;;;143738;612;46023;-88
2021/09/18 02:36:02;;;;;;;10.30;4.75;;;;;;;;;;143727;622;46014;-88
2021/09/18 02:38:33;;;;;;;7.12;4.75;;;;;;;;;;143728;576;46021;-88
2021/09/18 02:41:06;;;;;;;8.13;3.83;;;;;;;;;;143726;644;47018;-90
2021/09/18 02:43:38;;;;;;;15.75;6.12;;;;;;;;;;143732;569;46022;-87
2021/09/18 02:46:08;;;;;;;11.27;4.33;;;;;;;;;;143726;637;46018;-89
2021/09/18 02:48:40;;;;;;;11.18;4.32;;;;;;;;;;143728;591;47014;-88
2021/09/18 02:51:16;;;;;;;12.70;4.55;;;;;;;;;;143726;582;46020;-87
2021/09/18 02:53:58;;;;;;;7.15;4.25;;;;;;;;;;143729;615;46013;-87
2021/09/18 02:56:25;;;;;;;14.30;4.00;;;;;;;;;;143733;564;46018;-89
2021/09/18 02:59:04;;;;;;;9.80;4.25;;;;;;;;;;143733;617;46012;-89
2021/09/18 03:01:37;;;;;;;14.90;4.57;;;;;;;;;;143725;598;46034;-87
2021/09/18 03:04:08;;;;;;;13.90;4.60;;;;;;;;;;143731;583;46012;-89
2021/09/18 03:06:51;;;;;;;14.77;4.25;;;;;;;;;;143730;620;46018;-87
2021/09/18 03:09:36;;;;;;;;;;;;;;;;;;143734;979;46013;-88
2021/09/18 03:12:20;;;;;;;11.07;4.82;;;;;;;;;;143738;671;46020;-88
2021/09/18 03:14:56;;;;;;;8.98;4.60;;;;;;;;;;143731;583;46012;-88
2021/09/18 03:17:31;;;;;;;9.27;4.18;;;;;;;;;;143726;583;47018;-89
2021/09/18 03:20:08;;;;;;;9.70;4.72;;;;;;;;;;143735;581;46014;-88
2021/09/18 03:22:48;;;;;;;9.65;4.12;;;;;;;;;;143727;601;46045;-87
2021/09/18 03:25:40;;;;;;;;;;;;;;;;;;;;;
2021/09/18 03:28:24;;;;;;;7.62;4.82;;;;;;;;;;143726;645;46018;-86
2021/09/18 03:31:17;;;;;;;15.90;4.25;;;;;;;;;;143731;590;46013;-88
2021/09/18 03:33:58;;;;;;;13.77;4.00;;;;;;;;;;143730;581;46021;-89
2021/09/18 03:36:32;;;;;;;14.27;5.20;;;;;;;;;;143730;577;46012;-90
2021/09/18 03:39:16;;;;;;;14.48;5.10;;;;;;;;;;143725;577;47018;-90
2021/09/18 03:41:54;;;;;;;12.70;5.22;;;;;;;;;;143729;609;47019;-90
2021/09/18 03:44:34;;;;;;;12.68;5.32;;;;;;;;;;143726;577;46020;-88
2021/09/18 03:47:21;;;;;;;13.23;5.70;;;;;;;;;;143732;570;46023;-89
2021/09/18 03:49:48;;;;;;;9.82;4.93;;;;;;;;;;143727;583;46014;-87
2021/09/18 03:52:29;;;;;;;11.20;5.28;;;;;;;;;;143730;569;46012;-90
2021/09/18 03:55:13;;;;;;;14.38;5.68;;;;;;;;;;143723;579;46021;-88
2021/09/18 03:57:46;;;;;;;9.80;5.15;;;;;;;;;;143730;590;46012;-86
2021/09/18 04:00:13;;;;;;;22.13;6.45;;;;;;;;;;143726;581;46018;-88
2021/09/18 04:02:47;;;;;;;14.15;5.82;;;;;;;;;;143726;569;46020;-90
2021/09/18 04:05:20;;;;;;;14.38;5.35;;;;;;;;;;143724;590;47018;-90
2021/09/18 04:08:06;;;;;;;18.85;5.18;;;;;;;;;;143729;583;46022;-88
2021/09/18 04:10:50;;;;;;;15.68;5.97;;;;;;;;;;143726;564;46019;-89
2021/09/18 04:13:29;;;;;;;17.40;5.07;;;;;;;;;;143735;587;46012;-88
2021/09/18 04:16:17;;;;;;;16.27;5.05;;;;;;;;;;143728;570;46015;-88
2021/09/18 04:19:14;;;;;;;;;;;;;;;;;;;;;
2021/09/18 04:21:48;;;;;;;15.23;7.72;;;;;;;;;;143728;569;45020;-89
2021/09/18 04:24:16;;;;;;;14.18;6.95;;;;;;;;;;143731;575;47021;-90
2021/09/18 04:26:54;;;;;;;14.87;8.10;;;;;;;;;;143725;569;46020;-89
2021/09/18 04:29:24;;;;;;;20.27;5.65;;;;;;;;;;143731;564;46012;-90
2021/09/18 04:31:51;;;;;;;20.12;6.07;;;;;;;;;;143728;615;46018;-89
2021/09/18 04:34:17;;;;;;;18.23;6.93;;;;;;;;;;143729;581;46022;-89
2021/09/18 04:36:44;;;;;;;18.00;6.07;;;;;;;;;;143727;615;47020;-90
2021/09/18 04:39:13;;;;;;;24.35;6.43;;;;;;;;;;143732;651;46013;-88
2021/09/18 04:41:40;;;;;;;16.27;6.62;;;;;;;;;;143732;576;46018;-88
2021/09/18 04:44:06;;;;;;;18.25;5.80;;;;;;;;;;143734;571;46012;-88
2021/09/18 04:46:33;;;;;;;13.00;6.30;;;;;;;;;;143724;594;47020;-89
2021/09/18 04:49:01;;;;;;;13.38;6.07;;;;;;;;;;143731;594;46012;-88
2021/09/18 04:51:28;;;;;;;16.85;5.55;;;;;;;;;;143731;625;46014;-89
2021/09/18 04:53:54;;;;;;;28.23;6.47;;;;;;;;;;143731;630;46023;-90
2021/09/18 04:56:21;;;;;;;16.50;6.60;;;;;;;;;;143729;583;47020;-88
2021/09/18 04:58:49;;;;;;;17.87;6.80;;;;;;;;;;143731;626;46012;-90
2021/09/18 05:01:16;;;;;;;15.55;5.30;;;;;;;;;;143727;621;46019;-88
2021/09/18 05:03:43;;;;;;;16.15;6.72;;;;;;;;;;143732;578;46020;-88
2021/09/18 05:06:09;;;;;;;15.88;8.88;;;;;;;;;;143728;573;46020;-89
2021/09/18 05:08:36;;;;;;;19.75;7.53;;;;;;;;;;143731;564;46012;-90
2021/09/18 05:11:03;;;;;;;31.12;6.68;;;;;;;;;;143725;583;46018;-88
2021/09/18 05:13:30;;;;;;;19.35;5.65;;;;;;;;;;143727;569;46012;-90
2021/09/18 05:15:57;;;;;;;17.67;6.32;;;;;;;;;;143730;573;46018;-88
2021/09/18 05:18:24;;;;;;;20.20;6.00;;;;;;;;;;143732;569;46012;-88
2021/09/18 05:20:53;;;;;;;20.83;7.78;;;;;;;;;;143729;563;46018;-88
2021/09/18 05:23:19;;;;;;;18.20;6.45;;;;;;;;;;143728;637;46012;-89
2021/09/18 05:25:47;;;;;;;20.55;6.47;;;;;;;;;;143730;569;46014;-88
2021/09/18 05:28:15;;;;;;;15.45;6.20;;;;;;;;;;143730;597;46022;-88
2021/09/18 05:31:30;;;;;;;;;;;;;;;;;;;;;
2021/09/18 05:36:25;;;;;;;22.98;5.45;;;;;;;;;;143722;587;46018;-88
2021/09/18 05:38:51;;;;;;;18.35;6.82;;;;;;;;;;143725;600;46023;-88
2021/09/18 05:41:19;;;;;;;18.12;6.28;;;;;;;;;;143728;579;46018;-89
2021/09/18 05:43:48;;;;;;;15.80;6.28;;;;;;;;;;143728;581;46022;-88
2021/09/18 05:46:14;;;;;;;15.10;6.07;;;;;;;;;;143726;590;47020;-90
2021/09/18 05:48:41;;;;;;;32.22;6.20;;;;;;;;;;143729;672;46022;-87
2021/09/18 05:51:09;;;;;;;20.33;6.57;;;;;;;;;;143728;672;46018;-89
2021/09/18 05:53:36;;;;;;;17.25;6.03;;;;;;;;;;143728;652;46022;-90
2021/09/18 05:56:04;;;;;;;15.65;7.62;;;;;;;;;;143729;603;46020;-88
2021/09/18 05:58:30;;;;;;;16.75;7.45;;;;;;;;;;143728;584;46022;-87
2021/09/18 06:00:57;;;;;;;15.65;7.45;;;;;;;;;;143725;594;46019;-90
2021/09/18 06:03:23;;;;;;;17.02;6.87;;;;;;;;;;143729;607;46022;-89
2021/09/18 06:05:50;;;;;;;15.98;6.45;;;;;;;;;;143728;861;46020;-90
2021/09/18 06:08:17;;;;;;;19.70;5.72;;;;;;;;;;143728;587;46023;-87
2021/09/18 06:10:43;;;;;;;20.33;5.90;;;;;;;;;;143727;581;46018;-89
2021/09/18 06:13:10;;;;;;;17.67;5.85;;;;;;;;;;143729;569;46022;-87
2021/09/18 06:34:48;;;;;;;18.87;7.95;;;;;;;;;;143733;572;46012;-92
2021/09/18 06:37:15;;;;;;;13.55;7.25;;;;;;;;;;143732;571;47012;-88
2021/09/18 06:39:43;;;;;;;27.92;7.65;;;;;;;;;;143734;569;46021;-89
2021/09/18 06:42:09;;;;;;;17.08;6.10;;;;;;;;;;143732;571;46012;-89
2021/09/18 06:44:38;;;;;;;21.65;7.28;;;;;;;;;;143732;707;46019;-87
2021/09/18 06:47:05;;;;;;;37.25;9.48;;;;;;;;;;143734;625;46020;-90
2021/09/18 06:49:32;;;;;;;20.95;9.35;;;;;;;;;;143730;586;46018;-89
2021/09/18 06:51:59;;;;;;;31.62;10.02;;;;;;;;;;143730;644;47013;-89
2021/09/18 06:54:26;;;;;;;26.58;9.70;;;;;;;;;;143727;630;46012;-91
2021/09/18 06:56:53;;;;;;;31.65;10.40;;;;;;;;;;143733;594;46012;-90
2021/09/18 06:59:20;;;;;;;30.23;9.02;;;;;;;;;;143731;595;46019;-93
2021/09/18 07:01:53;;;;;;;33.38;9.63;;;;;;;;;;143737;569;46010;-91
2021/09/18 07:04:25;;;;;;;31.23;9.15;;;;;;;;;;143735;673;46012;-91
2021/09/18 07:06:52;;;;;;;24.87;9.30;;;;;;;;;;143737;570;46015;-92
2021/09/18 07:09:19;;;;;;;20.80;5.72;;;;;;;;;;143734;577;46018;-90
2021/09/18 07:11:47;;;;;;;22.83;6.55;;;;;;;;;;143736;715;46012;-91
2021/09/18 07:14:14;;;;;;;23.10;5.95;;;;;;;;;;143733;676;46012;-90
2021/09/18 07:16:41;;;;;;;21.15;5.37;;;;;;;;;;143737;573;46010;-91
2021/09/18 07:19:08;;;;;;;21.45;5.15;;;;;;;;;;143728;579;46018;-92
2021/09/18 07:21:49;;;;;;;;;;;;;;;;;;;;;
2021/09/18 07:24:16;;;;;;;17.10;4.53;;;;;;;;;;143736;876;46016;-93
2021/09/18 07:27:05;;;;;;;13.62;4.65;;;;;;;;;;143737;681;46022;-90
2021/09/18 07:29:36;;;;;;;10.43;4.30;;;;;;;;;;143732;619;46012;-93
2021/09/18 07:32:09;;;;;;;16.47;4.20;;;;;;;;;;143737;586;46010;-91
2021/09/18 07:34:36;;;;;;;16.10;4.90;;;;;;;;;;143731;565;46018;-92
2021/09/18 07:37:11;;;;;;;16.70;4.85;;;;;;;;;;143733;576;46012;-92
2021/09/18 07:39:55;;;;;;;20.30;4.43;;;;;;;;;;143730;762;46012;-91
2021/09/18 07:42:21;;;;;;;18.35;4.62;;;;;;;;;;143733;566;46012;-92
2021/09/18 07:44:48;;;;;;;16.58;4.10;;;;;;;;;;143726;634;46019;-92
2021/09/18 07:47:15;;;;;;;19.85;4.82;;;;;;;;;;143731;564;46012;-92
2021/09/18 07:49:43;;;;;;;16.85;4.43;;;;;;;;;;143726;590;46020;-91
2021/09/18 07:52:12;;;;;;;15.82;4.55;;;;;;;;;;143731;973;46013;-95
2021/09/18 07:54:49;;;;;;;15.45;4.80;;;;;;;;;;143730;582;46012;-94
2021/09/18 07:57:16;;;;;;;24.33;4.82;;;;;;;;;;143729;579;46022;-92
2021/09/18 07:59:43;;;;;;;17.85;4.18;;;;;;;;;;143733;668;46012;-95
2021/09/18 08:02:15;;;;;;;16.73;3.87;;;;;;;;;;143732;569;46012;-93
2021/09/18 08:04:55;;;;;;;22.02;5.07;;;;;;;;;;143730;566;46018;-93
2021/09/18 08:07:22;;;;;;;25.85;5.72;;;;;;;;;;143727;565;48021;-66
2021/09/18 08:09:49;;;;;;;21.90;4.80;;;;;;;;;;143718;565;46020;-68
2021/09/18 08:12:17;;;;;;;16.27;4.10;;;;;;;;;;143725;593;46012;-68
2021/09/18 08:14:43;;;;;;;13.57;5.22;;;;;;;;;;143725;564;46019;-68
2021/09/18 08:17:10;;;;;;;14.23;4.47;;;;;;;;;;143727;586;46012;-66
2021/09/18 08:19:36;;;;;;;10.93;4.32;;;;;;;;;;143723;590;46020;-68
2021/09/18 08:22:03;;;;;;;15.05;5.10;;;;;;;;;;143727;699;46013;-67
2021/09/18 08:24:29;;;;;;;17.70;4.43;;;;;;;;;;143722;566;46018;-69
2021/09/18 08:26:57;;;;;;;16.15;4.32;;;;;;;;;;143729;577;46012;-68
2021/09/18 08:29:24;;;;;;;28.15;6.03;;;;;;;;;;143723;588;47020;-68
2021/09/18 08:31:51;;;;;;;20.45;5.72;;;;;;;;;;143726;580;46012;-70
2021/09/18 08:34:18;;;;;;;16.35;4.65;;;;;;;;;;143725;584;46012;-70
2021/09/18 08:36:44;;;;;;;19.48;4.75;;;;;;;;;;143731;573;46021;-67
2021/09/18 08:39:11;;;;;;;17.37;4.85;;;;;;;;;;143726;753;46020;-69
2021/09/18 08:41:37;;;;;;;16.80;4.30;;;;;;;;;;143731;571;46012;-68
2021/09/18 08:44:04;;;;;;;17.10;5.70;;;;;;;;;;143730;599;46042;-67
2021/09/18 08:46:34;;;;;;;16.80;4.20;;;;;;;;;;143729;857;46012;-68
2021/09/18 08:49:00;;;;;;;17.92;4.72;;;;;;;;;;143731;587;46020;-67
2021/09/18 08:51:27;;;;;;;12.85;4.80;;;;;;;;;;143725;599;48012;-68
2021/09/18 08:53:53;;;;;;;20.37;5.28;;;;;;;;;;143727;589;47018;-69
2021/09/18 08:56:20;;;;;;;20.37;4.90;;;;;;;;;;143728;598;46020;-69
2021/09/18 08:58:47;;;;;;;21.00;6.10;;;;;;;;;;143725;592;46044;-68
2021/09/18 09:01:15;;;;;;;18.45;4.32;;;;;;;;;;143730;636;46012;-68
2021/09/18 09:03:42;;;;;;;24.00;5.43;;;;;;;;;;143728;655;46018;-68
2021/09/18 09:06:11;;;;;;;24.17;5.78;;;;;;;;;;143730;662;46013;-67
2021/09/18 09:08:40;;;;;;;27.40;5.20;;;;;;;;;;143730;701;46021;-68
2021/09/18 09:11:19;;;;;;;25.52;4.97;;;;;;;;;;143728;598;46012;-67
2021/09/18 09:14:10;;;;;;;18.35;5.93;;;;;;;;;;143729;582;46019;-68
2021/09/18 09:16:37;;;;;;;23.45;5.15;;;;;;;;;;143730;579;46012;-66
2021/09/18 09:19:21;;;;;;;16.30;5.18;;;;;;;;;;143729;580;46039;-67
2021/09/18 09:21:57;;;;;;;20.85;5.32;;;;;;;;;;143729;564;46012;-67
2021/09/18 09:24:25;;;;;;;20.67;4.25;;;;;;;;;;143723;579;46032;-68
2021/09/18 09:27:09;;;;;;;17.37;5.35;;;;;;;;;;143731;720;46012;-67
2021/09/18 09:29:50;;;;;;;27.13;4.68;;;;;;;;;;143729;647;47021;-69
2021/09/18 09:32:45;;;;;;;24.90;5.57;;;;;;;;;;143727;564;46012;-67
2021/09/18 09:35:15;;;;;;;21.02;4.50;;;;;;;;;;143727;666;46018;-68
2021/09/18 09:37:55;;;;;;;22.62;5.85;;;;;;;;;;143730;587;46023;-68
2021/09/18 09:40:48;;;;;;;24.92;5.22;;;;;;;;;;143732;683;46020;-68
2021/09/18 09:43:18;;;;;;;20.20;6.35;;;;;;;;;;143729;741;46022;-68
2021/09/18 09:45:45;;;;;;;23.67;4.87;;;;;;;;;;143729;600;46042;-67
2021/09/18 09:48:22;;;;;;;15.57;4.47;;;;;;;;;;143726;570;47010;-69
2021/09/18 09:51:01;;;;;;;15.95;4.30;;;;;;;;;;143723;614;47020;-69
2021/09/18 09:53:30;;;;;;;25.12;4.07;;;;;;;;;;143732;691;45921;-68
2021/09/18 09:55:57;;;;;;;26.52;5.57;;;;;;;;;;143729;580;46044;-68
2021/09/18 09:58:24;;;;;;;17.92;4.85;;;;;;;;;;143730;586;46013;-68
2021/09/18 10:00:53;;;;;;;19.35;5.60;;;;;;;;;;143729;581;46018;-67
2021/09/18 10:03:23;;;;;;;17.98;4.57;;;;;;;;;;143732;641;46012;-69
2021/09/18 10:05:51;;;;;;;23.58;6.07;;;;;;;;;;143729;669;46018;-67
2021/09/18 10:08:23;;;;;;;20.37;5.18;;;;;;;;;;143726;590;46012;-66
2021/09/18 10:10:51;;;;;;;26.20;5.60;;;;;;;;;;143728;564;46020;-69
2021/09/18 10:13:22;;;;;;;39.60;7.28;;;;;;;;;;143728;581;46013;-69
2021/09/18 10:15:51;;;;;;;32.88;4.95;;;;;;;;;;143723;733;46019;-69
2021/09/18 10:18:18;;;;;;;16.15;4.55;;;;;;;;;;143729;579;46022;-68
2021/09/18 10:23:36;;;;;;;16.63;4.23;;;;;;;;;;143728;590;46012;-68
2021/09/18 10:26:13;;;;;;;24.60;3.87;;;;;;;;;;143729;571;46018;-69
2021/09/18 10:28:47;;;;;;;14.02;3.87;;;;;;;;;;143730;593;46012;-68
2021/09/18 10:31:21;;;;;;;19.62;3.72;;;;;;;;;;143727;566;46021;-68
2021/09/18 10:33:54;;;;;;;23.05;3.22;;;;;;;;;;143732;572;46012;-69
2021/09/18 10:36:48;;;;;;;29.52;4.78;;;;;;;;;;143728;708;46021;-69
2021/09/18 10:39:20;;;;;;;23.55;5.12;;;;;;;;;;143731;594;46022;-70
2021/09/18 10:41:52;;;;;;;26.73;6.10;;;;;;;;;;143725;597;47020;-68
2021/09/18 10:44:22;;;;;;;15.88;4.75;;;;;;;;;;143728;602;46921;-67
2021/09/18 10:46:51;;;;;;;16.70;3.67;;;;;;;;;;143726;585;47018;-68
2021/09/18 10:49:40;;;;;;;14.85;4.30;;;;;;;;;;143729;614;46012;-69
2021/09/18 10:52:33;;;;;;;14.70;3.83;;;;;;;;;;143728;729;47018;-70
2021/09/18 10:55:17;;;;;;;17.45;5.18;;;;;;;;;;143728;591;46012;-69
2021/09/18 10:58:04;;;;;;;16.87;5.60;;;;;;;;;;143729;574;46019;-68
2021/09/18 11:00:41;;;;;;;18.55;3.92;;;;;;;;;;143727;690;46026;-70
2021/09/18 11:03:08;;;;;;;16.65;3.42;;;;;;;;;;143730;586;46020;-68
2021/09/18 11:05:52;;;;;;;23.65;4.40;;;;;;;;;;143729;618;46012;-68
2021/09/18 11:08:24;;;;;;;14.05;4.07;;;;;;;;;;143725;586;46018;-69
2021/09/18 11:10:54;;;;;;;43.38;4.12;;;;;;;;;;143732;589;46022;-69
2021/09/18 11:13:23;;;;;;;35.95;4.70;;;;;;;;;;143728;581;46020;-71
2021/09/18 11:15:57;;;;;;;21.95;4.28;;;;;;;;;;143730;565;46012;-68
2021/09/18 11:18:43;;;;;;;23.33;3.80;;;;;;;;;;143729;726;46018;-69
2021/09/18 11:21:17;;;;;;;21.95;3.40;;;;;;;;;;143730;674;46012;-71
2021/09/18 11:24:05;;;;;;;14.48;2.95;;;;;;;;;;143729;631;46020;-71
2021/09/18 11:26:54;;;;;;;18.45;3.70;;;;;;;;;;143727;701;46012;-71
2021/09/18 11:29:33;;;;;;;20.67;2.58;;;;;;;;;;143729;593;46019;-72
2021/09/18 11:32:14;;;;;;;10.35;2.55;;;;;;;;;;143728;625;46019;-70
2021/09/18 11:34:47;;;;;;;13.13;3.25;;;;;;;;;;143722;597;47019;-70
2021/09/18 11:37:39;;;;;;;12.63;3.45;;;;;;;;;;143729;691;46012;-69
2021/09/18 11:40:08;;;;;;;19.48;2.65;;;;;;;;;;143729;635;46018;-69
2021/09/18 11:42:44;;;;;;;15.57;3.12;;;;;;;;;;143731;580;46013;-68
2021/09/18 11:45:20;;;;;;;20.55;3.00;;;;;;;;;;143730;585;47021;-71
2021/09/18 11:47:49;;;;;;;14.40;2.67;;;;;;;;;;143730;598;46022;-69
2021/09/18 11:50:36;;;;;;;7.82;2.40;;;;;;;;;;143729;582;46019;-70
2021/09/18 11:53:09;;;;;;;14.85;2.75;;;;;;;;;;143729;570;46012;-69
2021/09/18 11:56:01;;;;;;;11.75;3.20;;;;;;;;;;143728;664;46020;-71
2021/09/18 11:58:30;;;;;;;20.40;3.42;;;;;;;;;;143729;648;46013;-69
2021/09/18 12:00:59;;;;;;;13.82;3.20;;;;;;;;;;143723;598;46018;-68
2021/09/18 12:03:34;;;;;;;17.35;3.37;;;;;;;;;;143730;665;47010;-69
2021/09/18 12:06:06;;;;;;;18.67;4.20;;;;;;;;;;143727;577;46014;-68
2021/09/18 12:08:35;;;;;;;17.15;2.67;;;;;;;;;;143728;639;46012;-70
2021/09/18 12:11:13;;;;;;;20.83;2.58;;;;;;;;;;143728;666;46018;-68
2021/09/18 12:13:43;;;;;;;17.52;3.92;;;;;;;;;;143729;595;46013;-68
2021/09/18 12:16:11;;;;;;;17.70;3.58;;;;;;;;;;143729;590;47020;-70
2021/09/18 12:18:41;;;;;;;24.50;3.45;;;;;;;;;;143729;565;46012;-69
2021/09/18 12:21:28;;;;;;;23.62;3.80;;;;;;;;;;143728;569;46019;-69
2021/09/18 12:24:04;;;;;;;24.27;5.28;;;;;;;;;;143731;619;46012;-67
2021/09/18 12:26:34;;;;;;;26.02;3.58;;;;;;;;;;143725;683;46014;-71
2021/09/18 12:29:12;;;;;;;19.58;3.33;;;;;;;;;;143729;564;46012;-71
2021/09/18 12:31:42;;;;;;;8.90;2.80;;;;;;;;;;143729;633;46018;-68
2021/09/18 12:34:11;;;;;;;17.58;3.33;;;;;;;;;;143730;669;46022;-69
2021/09/18 12:36:38;;;;;;;18.33;3.00;;;;;;;;;;143730;618;46022;-71
2021/09/18 12:39:06;;;;;;;12.55;3.30;;;;;;;;;;143729;598;46012;-70
2021/09/18 12:41:35;;;;;;;19.37;3.85;;;;;;;;;;143725;601;47018;-67
2021/09/18 12:44:12;;;;;;;25.25;3.83;;;;;;;;;;143730;610;46012;-69
2021/09/18 12:46:45;;;;;;;19.27;3.25;;;;;;;;;;143727;598;47020;-68
2021/09/18 12:49:13;;;;;;;12.37;3.08;;;;;;;;;;143727;577;46013;-69
2021/09/18 12:51:43;;;;;;;14.48;2.75;;;;;;;;;;143725;576;46018;-70
2021/09/18 12:54:17;;;;;;;29.35;3.87;;;;;;;;;;143732;590;46012;-69
2021/09/18 12:56:44;;;;;;;21.48;3.65;;;;;;;;;;143725;564;47018;-68
2021/09/18 12:59:17;;;;;;;15.50;4.15;;;;;;;;;;143729;570;46923;-69
2021/09/18 13:02:01;;;;;;;15.73;3.15;;;;;;;;;;143727;604;47018;-69
2021/09/18 13:04:30;;;;;;;16.05;3.80;;;;;;;;;;143728;589;46013;-69
2021/09/18 13:07:06;;;;;;;13.98;4.12;;;;;;;;;;143729;572;46021;-70
2021/09/18 13:09:37;;;;;;;18.45;3.80;;;;;;;;;;143731;571;46012;-68
2021/09/18 13:12:15;;;;;;;10.55;2.80;;;;;;;;;;143727;609;46019;-69
2021/09/18 13:14:49;;;;;;;14.15;2.90;;;;;;;;;;143729;642;46012;-68
2021/09/18 13:17:24;;;;;;;18.73;3.80;;;;;;;;;;143719;571;47020;-69
2021/09/18 13:20:17;;;;;;;10.77;2.95;;;;;;;;;;143730;672;46012;-69
2021/09/18 13:22:45;;;;;;;16.35;3.20;;;;;;;;;;143728;567;46018;-68
2021/09/18 13:25:15;;;;;;;14.48;3.60;;;;;;;;;;143730;631;46012;-70
2021/09/18 13:27:43;;;;;;;18.02;3.47;;;;;;;;;;143729;580;46026;-68
2021/09/18 13:30:11;;;;;;;14.85;3.60;;;;;;;;;;143731;615;46923;-68
2021/09/18 13:32:38;;;;;;;15.05;3.40;;;;;;;;;;143730;596;46018;-71
2021/09/18 13:35:05;;;;;;;15.05;2.90;;;;;;;;;;143732;630;46013;-69
2021/09/18 13:37:31;;;;;;;19.35;4.28;;;;;;;;;;143728;583;47021;-70
2021/09/18 13:39:57;;;;;;;15.45;4.05;;;;;;;;;;143728;616;46012;-67
2021/09/18 13:42:26;;;;;;;12.57;3.40;;;;;;;;;;143723;569;46019;-67
2021/09/18 13:44:55;;;;;;;16.30;3.83;;;;;;;;;;143731;648;46010;-68
2021/09/18 13:47:25;;;;;;;13.32;3.70;;;;;;;;;;143728;580;47020;-68
2021/09/18 13:49:51;;;;;;;12.93;3.60;;;;;;;;;;143728;570;46013;-68
2021/09/18 13:52:18;;;;;;;14.30;3.08;;;;;;;;;;143730;621;46018;-68
2021/09/18 13:54:44;;;;;;;11.10;2.65;;;;;;;;;;143730;565;46012;-68
2021/09/18 13:57:11;;;;;;;16.42;4.87;;;;;;;;;;143728;584;46020;-68
2021/09/18 13:59:37;;;;;;;21.23;4.07;;;;;;;;;;143729;580;46022;-67
2021/09/18 14:02:04;;;;;;;13.82;3.55;;;;;;;;;;143729;613;46018;-69
2021/09/18 14:04:32;;;;;;;11.25;3.67;;;;;;;;;;143731;599;46013;-69
2021/09/18 14:06:59;;;;;;;16.55;4.32;;;;;;;;;;143726;589;46021;-70
2021/09/18 14:09:25;;;;;;;21.50;3.80;;;;;;;;;;143729;632;46012;-70
2021/09/18 14:11:52;;;;;;;16.50;3.45;;;;;;;;;;143731;622;46019;-71
2021/09/18 14:14:18;;;;;;;14.65;3.90;;;;;;;;;;143731;591;46020;-69
2021/09/18 14:16:48;;;;;;;18.27;4.28;;;;;;;;;;143731;573;46020;-68
2021/09/18 14:19:15;;;;;;;14.93;3.83;;;;;;;;;;143729;583;46013;-68
2021/09/18 14:21:42;;;;;;;16.92;4.35;;;;;;;;;;143730;569;46018;-70
2021/09/18 14:24:10;;;;;;;12.77;4.20;;;;;;;;;;143732;572;46020;-70
2021/09/18 14:26:36;;;;;;;18.17;4.30;;;;;;;;;;143728;567;46020;-68
2021/09/18 14:29:03;;;;;;;18.15;4.70;;;;;;;;;;143732;578;46023;-68
2021/09/18 14:31:30;;;;;;;15.70;4.40;;;;;;;;;;143723;584;47018;-69
2021/09/18 14:33:57;;;;;;;19.17;3.80;;;;;;;;;;143729;630;46022;-66
2021/09/18 14:36:23;;;;;;;16.83;3.45;;;;;;;;;;143732;591;46047;-69
2021/09/18 14:38:52;;;;;;;16.95;3.12;;;;;;;;;;143729;600;46022;-69
2021/09/18 14:41:19;;;;;;;20.12;4.03;;;;;;;;;;143728;579;46019;-67
2021/09/18 14:43:46;;;;;;;16.45;3.35;;;;;;;;;;143730;605;46012;-69
2021/09/18 14:46:13;;;;;;;15.15;3.65;;;;;;;;;;143728;569;46038;-67
2021/09/18 14:48:40;;;;;;;11.25;3.30;;;;;;;;;;143731;588;46023;-68
2021/09/18 14:51:09;;;;;;;14.48;3.37;;;;;;;;;;143727;632;46018;-69
2021/09/18 14:53:35;;;;;;;10.60;2.87;;;;;;;;;;143730;750;46012;-69
2021/09/18 14:56:02;;;;;;;12.37;3.72;;;;;;;;;;143724;630;47020;-68
2021/09/18 14:58:29;;;;;;;19.55;3.62;;;;;;;;;;143729;564;46012;-73
2021/09/18 15:00:55;;;;;;;13.70;3.50;;;;;;;;;;143730;604;46018;-68
2021/09/18 15:03:22;;;;;;;13.82;3.55;;;;;;;;;;143734;576;46012;-69
2021/09/18 15:05:48;;;;;;;16.80;3.80;;;;;;;;;;143728;590;47012;-67
2021/09/18 15:08:15;;;;;;;16.67;3.70;;;;;;;;;;143730;611;46012;-68
2021/09/18 15:10:41;;;;;;;20.35;4.28;;;;;;;;;;143727;667;46018;-70
2021/09/18 15:13:08;;;;;;;23.27;4.30;;;;;;;;;;143732;597;46012;-68
2021/09/18 15:15:34;;;;;;;23.45;3.70;;;;;;;;;;143729;619;46020;-67
2021/09/18 15:18:01;;;;;;;10.40;3.22;;;;;;;;;;143729;595;46012;-68
2021/09/18 15:20:30;;;;;;;18.33;3.92;;;;;;;;;;143725;579;46019;-69
2021/09/18 15:23:02;;;;;;;17.23;3.87;;;;;;;;;;143728;605;46012;-67
2021/09/18 15:25:29;;;;;;;23.20;3.92;;;;;;;;;;143730;637;46020;-67
2021/09/18 15:27:56;;;;;;;16.17;3.42;;;;;;;;;;143731;581;46022;-65
2021/09/18 15:30:25;;;;;;;21.37;3.80;;;;;;;;;;143730;579;46018;-68
2021/09/18 15:32:51;;;;;;;19.05;3.55;;;;;;;;;;143732;565;46012;-68